Time;durP1;ratioP1;P1;durP2;ratioP2;P2;SDS_P1;SDS_P2;PMS_P1;PMS_P2;Temp;Humidity;BMP_temperature;BMP_pressure;BME280_temperature;BME280_humidity;BME280_pressure;Samples;Min_cycle;Max_cycle;Signal;HPM_P1;HPM_P2
2022/06/20 16:24:28;;;;;;;2.78;0.55;;;;;;;22.27;69.55;101058.00;6074444;23;20525;-49
2022/06/20 16:26:54;;;;;;;1.63;0.55;;;;;;;22.35;72.93;101062.94;6065233;23;20014;-52
2022/06/20 16:29:34;;;;;;;2.63;0.63;;;;;;;22.56;68.67;101052.31;6070305;23;20011;-47
2022/06/20 16:32:21;;;;;;;2.08;0.60;;;;;;;22.58;71.82;101055.59;6048184;23;20018;-47
2022/06/20 16:34:56;;;;;;;1.42;0.68;;;;;;;22.40;72.16;101060.28;6073969;23;20014;-49
2022/06/20 16:37:23;;;;;;;5.47;1.30;;;;;;;22.48;73.39;101055.50;6075362;23;20373;-51
2022/06/20 16:39:53;;;;;;;1.27;0.32;;;;;;;22.27;72.74;101060.69;6072930;23;20042;-49
2022/06/20 16:42:30;;;;;;;2.65;0.60;;;;;;;22.28;71.11;101054.25;6076706;23;20408;-53
2022/06/20 16:45:21;;;;;;;3.25;0.30;;;;;;;22.36;71.40;101053.78;6078324;23;20103;-47
2022/06/20 16:48:04;;;;;;;2.00;0.60;;;;;;;22.36;66.56;101052.97;6075890;23;20030;-48
2022/06/20 16:50:38;;;;;;;3.88;1.65;;;;;;;22.04;70.08;101056.38;6078173;23;20490;-50
2022/06/20 16:53:41;;;;;;;4.53;0.45;;;;;;;22.15;73.14;101052.75;6080036;23;20014;-53
2022/06/20 16:56:10;;;;;;;1.42;0.20;;;;;;;22.12;71.17;101047.00;6078052;23;20304;-53
2022/06/20 16:59:06;;;;;;;3.67;0.50;;;;;;;21.94;69.05;101040.91;6080199;23;20078;-51
2022/06/20 17:01:40;;;;;;;4.22;0.20;;;;;;;22.03;69.33;101038.56;6082850;23;20117;-49
2022/06/20 17:04:17;;;;;;;1.77;0.30;;;;;;;22.18;66.12;101040.63;6079055;23;20037;-48
2022/06/20 17:07:03;;;;;;;0.22;0.15;;;;;;;21.89;69.31;101040.84;6083566;23;20018;-50
2022/06/20 17:10:08;;;;;;;5.80;0.77;;;;;;;21.92;68.98;101034.13;6081948;23;20065;-48
2022/06/20 17:12:40;;;;;;;7.95;0.75;;;;;;;22.13;68.13;101035.16;6085001;23;20041;-51
2022/06/20 17:15:28;;;;;;;2.20;0.38;;;;;;;22.45;69.85;101032.50;6081198;23;20057;-50
2022/06/20 17:18:58;;;;;;;1.67;0.30;;;;;;;22.52;67.31;101032.31;6086722;23;20017;-52
2022/06/20 17:21:39;;;;;;;3.47;0.98;;;;;;;22.99;63.27;101023.50;5939705;24;20027;-48
2022/06/20 17:24:13;;;;;;;3.95;0.40;;;;;;;23.20;64.60;101024.44;5939748;24;20024;-51
2022/06/20 17:26:45;;;;;;;1.85;0.47;;;;;;;22.90;64.73;101025.00;6029397;23;20014;-49
2022/06/20 17:29:40;;;;;;;3.45;0.85;;;;;;;22.43;65.21;101024.69;6077144;23;20033;-47
2022/06/20 17:32:30;;;;;;;3.15;0.32;;;;;;;22.32;64.31;101024.84;6080800;23;20054;-48
2022/06/20 17:35:10;;;;;;;0.82;0.28;;;;;;;22.92;64.49;101023.69;6083462;23;20018;-50
2022/06/20 17:37:38;;;;;;;4.22;0.35;;;;;;;23.18;64.07;101026.56;6083186;23;20392;-50
2022/06/20 17:40:15;;;;;;;6.00;0.93;;;;;;;23.14;63.94;101020.88;6083516;23;20040;-51
2022/06/20 17:42:58;;;;;;;1.27;0.60;;;;;;;23.45;63.51;101021.84;6084432;23;20013;-50
2022/06/20 17:45:53;;;;;;;7.45;0.82;;;;;;;22.97;63.23;101023.75;6085728;23;20017;-48
2022/06/20 17:48:41;;;;;;;2.65;0.40;;;;;;;22.06;68.12;101024.53;6088324;23;20010;-50
2022/06/20 17:51:17;;;;;;;1.77;0.63;;;;;;;21.58;67.65;101014.53;6087969;23;20018;-54
2022/06/20 17:53:54;;;;;;;1.40;1.30;;;;;;;21.80;69.36;101014.56;6087780;23;20042;-49
2022/06/20 17:56:25;;;;;;;1.55;0.28;;;;;;;21.98;71.56;101015.00;6087480;23;20427;-49
2022/06/20 17:59:21;;;;;;;2.22;0.25;;;;;;;21.59;67.87;101010.81;6085662;23;20347;-50
2022/06/20 18:02:09;;;;;;;2.13;0.35;;;;;;;21.24;72.43;101011.94;6086146;23;20049;-52
2022/06/20 18:04:40;;;;;;;3.10;0.47;;;;;;;21.04;75.39;101015.16;6088316;23;20042;-51
2022/06/20 18:07:11;;;;;;;;;;;;;;;20.74;75.49;101015.53;6087443;23;20443;-49
2022/06/20 18:09:47;;;;;;;0.60;0.28;;;;;;;20.60;76.72;101020.41;6088161;23;19917;-51
2022/06/20 18:12:31;;;;;;;1.27;0.30;;;;;;;20.48;77.04;101015.06;6084072;23;20087;-50
2022/06/20 18:15:09;;;;;;;4.90;0.50;;;;;;;20.23;76.89;101013.56;6087650;23;20070;-48
2022/06/20 18:17:45;;;;;;;1.48;0.30;;;;;;;20.01;77.67;101013.44;6085836;23;20018;-49
2022/06/20 18:20:29;;;;;;;0.63;0.30;;;;;;;19.78;78.59;101018.91;6080678;23;20045;-49
2022/06/20 18:23:10;;;;;;;0.70;0.60;;;;;;;19.52;79.97;101013.00;6083472;23;20175;-50
2022/06/20 18:25:49;;;;;;;5.38;0.32;;;;;;;19.36;81.38;101009.16;6085779;23;20014;-50
2022/06/20 18:28:15;;;;;;;7.38;0.75;;;;;;;19.28;82.41;101014.88;6080200;23;20364;-50
2022/06/20 18:30:46;;;;;;;6.28;0.88;;;;;;;19.29;83.08;101013.84;6081475;23;20011;-49
2022/06/20 18:33:17;;;;;;;2.53;0.40;;;;;;;19.29;81.96;101021.09;6080500;23;20007;-48
2022/06/20 18:35:43;;;;;;;3.00;0.38;;;;;;;19.30;82.89;101011.97;6078524;23;20106;-50
2022/06/20 18:38:14;;;;;;;4.05;0.57;;;;;;;19.22;83.87;101015.84;6075583;23;20006;-52
2022/06/20 18:40:51;;;;;;;2.25;0.55;;;;;;;19.17;84.85;101018.41;6081968;23;20514;-52
2022/06/20 18:43:23;;;;;;;4.00;0.60;;;;;;;19.21;85.79;101016.09;6080867;23;20121;-53
2022/06/20 18:45:50;;;;;;;4.38;1.08;;;;;;;19.22;86.02;101020.41;6081781;23;20444;-49
2022/06/20 18:48:25;;;;;;;4.45;0.38;;;;;;;19.11;88.84;101027.44;6080843;23;20006;-48
2022/06/20 18:51:01;;;;;;;2.00;0.80;;;;;;;19.11;88.92;101024.75;6083983;23;20034;-51
2022/06/20 18:54:17;;;;;;;1.95;0.32;;;;;;;19.01;94.73;101025.31;6086628;23;20002;-49
2022/06/20 18:57:10;;;;;;;2.97;0.52;;;;;;;18.89;93.16;101022.59;6026215;23;20022;-52
2022/06/20 18:59:59;;;;;;;3.95;0.50;;;;;;;18.79;92.75;101025.06;6087419;23;20097;-53
2022/06/20 19:02:40;;;;;;;2.80;0.60;;;;;;;18.60;94.41;101018.13;6084806;23;20466;-50
2022/06/20 19:05:30;;;;;;;1.85;0.20;;;;;;;18.46;96.47;101025.59;6084929;23;20018;-49
2022/06/20 19:08:04;;;;;;;2.53;0.43;;;;;;;18.32;98.63;101033.00;6082314;23;20448;-49
2022/06/20 19:11:08;;;;;;;0.70;0.28;;;;;;;18.12;100.00;101024.41;6085192;23;20038;-48
2022/06/20 19:13:51;;;;;;;2.22;0.50;;;;;;;17.98;100.00;101029.13;6085876;23;20018;-49
2022/06/20 19:16:37;;;;;;;2.50;0.68;;;;;;;17.81;100.00;101029.78;6085150;23;20069;-51
2022/06/20 19:19:18;;;;;;;0.80;0.30;;;;;;;17.67;100.00;101025.56;6083109;23;20284;-52
2022/06/20 19:22:01;;;;;;;2.88;0.70;;;;;;;17.46;100.00;101026.03;6085610;23;20561;-51
2022/06/20 19:24:31;;;;;;;2.05;0.50;;;;;;;17.34;100.00;101033.97;6085879;23;20081;-51
2022/06/20 19:27:01;;;;;;;3.67;0.70;;;;;;;17.18;100.00;101025.47;6085399;23;20462;-48
2022/06/20 19:29:37;;;;;;;1.58;0.57;;;;;;;17.02;100.00;101034.09;6085595;23;20082;-49
2022/06/20 19:32:08;;;;;;;2.22;0.57;;;;;;;16.88;100.00;101027.19;6085100;23;20104;-49
2022/06/20 19:34:35;;;;;;;5.38;0.70;;;;;;;16.72;100.00;101025.84;6085289;23;20014;-49
2022/06/20 19:37:14;;;;;;;0.50;0.50;;;;;;;16.56;100.00;101030.72;6085244;23;20368;-49
2022/06/20 19:40:12;;;;;;;2.65;1.17;;;;;;;16.32;100.00;101043.03;6086562;23;20050;-50
2022/06/20 19:43:01;;;;;;;2.47;1.27;;;;;;;16.05;100.00;101036.16;6076074;23;20014;-55
2022/06/20 19:45:33;;;;;;;1.25;0.75;;;;;;;15.83;100.00;101038.34;6086777;23;20011;-50
2022/06/20 19:48:02;;;;;;;;;;;;;;;15.76;100.00;101030.34;6083365;23;20029;-49
2022/06/20 19:50:33;;;;;;;6.05;1.38;;;;;;;15.67;100.00;101027.06;6077909;23;19996;-52
2022/06/20 19:53:03;;;;;;;0.70;0.47;;;;;;;15.57;100.00;101028.53;6083691;23;20062;-52
2022/06/20 19:55:55;;;;;;;1.38;0.70;;;;;;;15.44;100.00;101030.22;6085806;23;20400;-52
2022/06/20 19:58:29;;;;;;;2.65;0.90;;;;;;;15.29;100.00;101034.16;6086458;23;20094;-50
2022/06/20 20:01:00;;;;;;;0.82;0.43;;;;;;;15.14;100.00;101032.53;6085500;23;20018;-54
2022/06/20 20:03:26;;;;;;;1.45;0.68;;;;;;;15.02;100.00;101029.69;6085665;23;20503;-49
2022/06/20 20:05:56;;;;;;;3.50;0.60;;;;;;;14.86;100.00;101027.41;6083577;23;20093;-52
2022/06/20 20:08:40;;;;;;;4.40;0.63;;;;;;;14.66;100.00;101034.59;6086898;23;20313;-52
2022/06/20 20:11:15;;;;;;;3.80;0.93;;;;;;;14.42;100.00;101027.97;6087620;23;20373;-49
2022/06/20 20:13:47;;;;;;;1.55;0.57;;;;;;;14.23;100.00;101029.59;6088801;23;20514;-50
2022/06/20 20:16:18;;;;;;;0.68;0.68;;;;;;;14.08;100.00;101030.56;6087628;23;20387;-54
2022/06/20 20:18:52;;;;;;;8.43;0.80;;;;;;;13.98;100.00;101032.78;6087538;23;20011;-51
2022/06/20 20:21:40;;;;;;;3.15;1.13;;;;;;;13.86;100.00;101039.69;6084920;23;20022;-53
2022/06/20 20:24:19;;;;;;;0.68;0.50;;;;;;;13.69;100.00;101037.38;6083699;23;20014;-52
2022/06/20 20:26:51;;;;;;;2.92;0.80;;;;;;;13.55;100.00;101046.31;6084586;23;20021;-50
2022/06/20 20:29:37;;;;;;;3.15;0.50;;;;;;;13.41;100.00;101037.44;6086340;23;20018;-51
2022/06/20 20:32:16;;;;;;;2.67;0.57;;;;;;;13.31;100.00;101051.09;6084806;23;20471;-51
2022/06/20 20:34:50;;;;;;;3.03;0.77;;;;;;;13.26;100.00;101042.88;6083816;23;20057;-51
2022/06/20 20:37:26;;;;;;;0.98;0.98;;;;;;;13.17;100.00;101052.00;6083106;23;20382;-52
2022/06/20 20:39:51;;;;;;;5.82;1.45;;;;;;;13.09;100.00;101044.16;6082891;23;20026;-54
2022/06/20 20:42:38;;;;;;;1.05;0.63;;;;;;;13.01;100.00;101046.94;6082831;23;20068;-52
2022/06/20 20:45:40;;;;;;;3.80;0.70;;;;;;;12.97;100.00;101053.69;6083170;23;20022;-49
2022/06/20 20:48:10;;;;;;;2.92;0.82;;;;;;;12.91;100.00;101057.09;6084922;23;20137;-51
2022/06/20 20:50:42;;;;;;;4.00;1.10;;;;;;;12.83;100.00;101063.38;6084815;23;20021;-49
2022/06/20 20:53:21;;;;;;;;;;;;;;;12.70;100.00;101056.13;6084275;23;20340;-49
2022/06/20 20:55:52;;;;;;;2.60;0.60;;;;;;;12.61;100.00;101052.75;6084492;23;19929;-50
2022/06/20 20:58:24;;;;;;;1.45;0.65;;;;;;;12.58;100.00;101057.66;6084659;23;20014;-49
2022/06/20 21:00:58;;;;;;;3.28;0.75;;;;;;;12.47;100.00;101051.00;6086032;23;20073;-50
2022/06/20 21:03:25;;;;;;;2.50;0.55;;;;;;;12.41;100.00;101049.09;6085019;23;20048;-49
2022/06/20 21:05:59;;;;;;;1.33;0.88;;;;;;;12.36;100.00;101051.50;6085837;23;20002;-54
2022/06/20 21:08:32;;;;;;;1.27;0.50;;;;;;;12.27;100.00;101061.44;6089430;23;20458;-49
2022/06/20 21:11:02;;;;;;;1.48;1.38;;;;;;;12.15;100.00;101053.09;6088641;23;20018;-49
2022/06/20 21:13:50;;;;;;;3.95;0.70;;;;;;;12.05;100.00;101055.22;6089194;23;20139;-51
2022/06/20 21:16:20;;;;;;;1.08;0.65;;;;;;;11.96;100.00;101054.53;6090026;23;20003;-51
2022/06/20 21:18:46;;;;;;;2.35;0.47;;;;;;;11.85;100.00;101046.16;6091252;23;20033;-49
2022/06/20 21:21:19;;;;;;;2.28;0.60;;;;;;;11.76;100.00;101050.75;6085037;23;20488;-51
2022/06/20 21:23:53;;;;;;;2.55;0.75;;;;;;;11.69;100.00;101053.31;6089047;23;20018;-49
2022/06/20 21:26:22;;;;;;;1.77;1.52;;;;;;;11.70;100.00;101054.16;6088372;23;20235;-53
2022/06/20 21:28:50;;;;;;;4.88;1.05;;;;;;;11.69;100.00;101045.34;6086148;23;20018;-49
2022/06/20 21:31:30;;;;;;;3.22;1.17;;;;;;;11.65;100.00;101045.94;6087167;23;20102;-54
2022/06/20 21:34:00;;;;;;;3.72;1.10;;;;;;;11.63;100.00;101051.41;6086387;23;20010;-50
2022/06/20 21:36:37;;;;;;;5.18;1.55;;;;;;;11.63;100.00;101046.09;6086929;23;20010;-49
2022/06/20 21:39:06;;;;;;;4.88;1.13;;;;;;;11.59;100.00;101047.50;6086628;23;20010;-50
2022/06/20 21:41:53;;;;;;;7.90;1.52;;;;;;;11.45;100.00;101049.13;6083693;23;20006;-49
2022/06/20 21:44:27;;;;;;;2.67;1.25;;;;;;;11.27;100.00;101054.78;6085277;23;20308;-48
2022/06/20 21:46:55;;;;;;;6.75;0.98;;;;;;;11.11;100.00;101047.81;6086368;23;20010;-49
2022/06/20 21:49:23;;;;;;;6.40;1.00;;;;;;;10.94;100.00;101046.31;6060839;23;20015;-49
2022/06/20 21:51:55;;;;;;;3.17;1.17;;;;;;;10.83;100.00;101052.88;6086482;23;20355;-51
2022/06/20 21:54:30;;;;;;;2.33;1.10;;;;;;;10.78;100.00;101049.09;6085008;23;20356;-49
2022/06/20 21:56:59;;;;;;;2.85;1.20;;;;;;;10.72;100.00;101044.53;6084035;23;20420;-51
2022/06/20 21:59:41;;;;;;;3.30;1.42;;;;;;;10.57;100.00;101039.16;6084406;23;20471;-53
2022/06/20 22:05:10;;;;;;;2.63;1.10;;;;;;;10.42;100.00;101031.13;6084035;23;20045;-51
2022/06/20 22:07:44;;;;;;;1.08;0.63;;;;;;;10.42;100.00;101031.97;6086872;23;20396;-50
2022/06/20 22:10:16;;;;;;;6.22;1.80;;;;;;;10.43;100.00;101032.81;6082378;23;20032;-49
2022/06/20 22:12:51;;;;;;;7.57;2.13;;;;;;;10.34;100.00;101031.19;6079805;23;20510;-49
2022/06/20 22:15:22;;;;;;;2.45;1.20;;;;;;;10.26;100.00;101030.22;6081626;23;20017;-50
2022/06/20 22:17:59;;;;;;;6.22;1.35;;;;;;;10.24;100.00;101024.25;6081687;23;20011;-52
2022/06/20 22:20:31;;;;;;;3.20;1.05;;;;;;;10.22;100.00;101028.09;6082194;23;20454;-51
2022/06/20 22:22:58;;;;;;;2.85;1.10;;;;;;;10.20;100.00;101032.75;6081920;23;20175;-52
2022/06/20 22:25:32;;;;;;;2.92;1.08;;;;;;;10.16;100.00;101032.25;6082028;23;20010;-49
2022/06/20 22:28:01;;;;;;;1.63;0.57;;;;;;;10.12;100.00;101038.06;6083473;23;20474;-55
2022/06/20 22:30:39;;;;;;;1.90;1.08;;;;;;;10.04;100.00;101026.56;6083316;23;20010;-51
2022/06/20 22:33:10;;;;;;;1.17;0.50;;;;;;;9.98;100.00;101032.53;6083494;23;20072;-51
2022/06/20 22:35:36;;;;;;;;;;;;;;;9.90;100.00;101034.41;6086057;23;20508;-52
2022/06/20 22:38:27;;;;;;;0.80;0.45;;;;;;;9.83;100.00;101035.09;6087284;23;19910;-51
2022/06/20 22:40:56;;;;;;;1.85;0.38;;;;;;;9.75;100.00;101024.53;6075767;23;20019;-49
2022/06/20 22:43:31;;;;;;;1.27;0.95;;;;;;;9.70;100.00;101029.50;6062672;23;20029;-52
2022/06/20 22:46:18;;;;;;;2.40;1.02;;;;;;;9.55;100.00;101036.50;6087737;23;20009;-51
2022/06/20 22:48:49;;;;;;;4.15;1.55;;;;;;;9.46;100.00;101034.91;6087187;23;20512;-49
2022/06/20 22:51:15;;;;;;;1.65;0.70;;;;;;;9.31;100.00;101029.47;6085683;23;20010;-52
2022/06/20 22:54:04;;;;;;;2.50;0.95;;;;;;;9.24;100.00;101031.13;6087964;23;20061;-53
2022/06/20 22:56:34;;;;;;;1.17;0.73;;;;;;;9.16;100.00;101029.34;6087270;23;20069;-53
2022/06/20 22:59:25;;;;;;;2.08;1.05;;;;;;;9.06;100.00;101033.97;6087458;23;20007;-52
2022/06/20 23:01:58;;;;;;;1.90;0.50;;;;;;;8.97;100.00;101045.56;6071843;23;20010;-51
2022/06/20 23:04:32;;;;;;;3.05;1.10;;;;;;;8.87;100.00;101043.91;6087827;23;20376;-50
2022/06/20 23:06:58;;;;;;;1.50;1.00;;;;;;;8.80;100.00;101048.22;6087457;23;20010;-49
2022/06/20 23:09:23;;;;;;;1.38;0.45;;;;;;;8.74;100.00;101043.59;6086181;23;20094;-52
2022/06/20 23:11:51;;;;;;;2.85;1.75;;;;;;;8.70;100.00;101047.56;6085549;23;20452;-51
2022/06/20 23:14:18;;;;;;;1.40;0.98;;;;;;;8.60;100.00;101045.09;6089168;23;20038;-49
2022/06/20 23:19:35;;;;;;;3.50;1.25;;;;;;;8.46;100.00;101049.19;6060029;23;20029;-50
2022/06/20 23:22:18;;;;;;;2.55;0.90;;;;;;;8.42;100.00;101045.22;6087810;23;20037;-50
2022/06/20 23:24:44;;;;;;;3.22;1.15;;;;;;;8.37;100.00;101041.41;6085992;23;20130;-49
2022/06/20 23:27:12;;;;;;;2.28;2.08;;;;;;;8.35;100.00;101046.84;6088356;23;20010;-51
2022/06/20 23:29:38;;;;;;;4.38;1.13;;;;;;;8.35;100.00;101051.28;6087778;23;20474;-54
2022/06/20 23:32:04;;;;;;;2.05;1.33;;;;;;;8.35;100.00;101062.69;6088420;23;20006;-54
2022/06/20 23:34:35;;;;;;;2.30;1.20;;;;;;;8.35;100.00;101060.03;6090772;23;20389;-50
2022/06/20 23:37:03;;;;;;;1.90;0.50;;;;;;;8.29;100.00;101058.06;6088349;23;20142;-50
2022/06/20 23:39:29;;;;;;;1.67;1.25;;;;;;;8.24;100.00;101057.72;6089893;23;20015;-49
2022/06/20 23:41:55;;;;;;;1.13;0.88;;;;;;;8.18;100.00;101055.69;6089306;23;20041;-50
2022/06/20 23:44:24;;;;;;;3.08;1.20;;;;;;;8.18;100.00;101055.69;6090158;23;20313;-50
2022/06/20 23:46:50;;;;;;;1.50;0.60;;;;;;;8.19;100.00;101057.38;6089396;23;20010;-51
2022/06/20 23:49:17;;;;;;;3.05;1.13;;;;;;;8.14;100.00;101065.78;6091331;23;20010;-54
2022/06/20 23:51:43;;;;;;;1.30;0.82;;;;;;;8.12;100.00;101061.63;6091241;23;20011;-53
2022/06/20 23:54:08;;;;;;;4.88;1.38;;;;;;;8.08;100.00;101061.16;6089569;23;20093;-51
2022/06/20 23:56:34;;;;;;;3.00;1.75;;;;;;;8.07;100.00;101062.94;6091836;23;20010;-52
2022/06/20 23:59:01;;;;;;;1.67;0.57;;;;;;;8.01;100.00;101068.03;6087244;23;20046;-49
